Alder Creek, New York
Current Conditions -  °F | °C
As of 11:53 AM on Friday 19 Dec 2014 (Local Time) from KRME Reporting Station
Overcast Overcast  
Wind Chill: -9°   Ceiling: 2700
Heat Index: -3°   Visibility: 10mi
Dew Point: -7°   Wind: 12mph
Humidity: 78%   Direction: 280°W
Pressure: 30.13"   Gusts: NA
Location:  43.42°N, 75.23°W
Report Text: KRME 191653Z 28010KT 10SM SCT020 OVC027 M03/M07 A3013 RMK AO2 SLP207 T10331067
Loading
Personal Weather Stations






























Interactive Weather Map New forecast layout! Learn more

10-Day Weather Forecast

Advertisements
Track Severe Weather on mobile